sensor_id;sensor_type;location;lat;lon;timestamp;temperature;humidity
28484;DHT22;15704;48.834;8.736;2022-11-21T00:00:43;4.60;99.90
28484;DHT22;15704;48.834;8.736;2022-11-21T00:03:10;4.60;99.90
28484;DHT22;15704;48.834;8.736;2022-11-21T00:05:39;4.70;99.90
28484;DHT22;15704;48.834;8.736;2022-11-21T00:08:09;4.60;99.90
28484;DHT22;15704;48.834;8.736;2022-11-21T00:10:35;4.60;99.90
28484;DHT22;15704;48.834;8.736;2022-11-21T00:13:01;4.60;99.90
28484;DHT22;15704;48.834;8.736;2022-11-21T00:15:27;4.60;99.90
28484;DHT22;15704;48.834;8.736;2022-11-21T00:17:53;4.50;99.90
28484;DHT22;15704;48.834;8.736;2022-11-21T00:20:20;4.50;99.90
28484;DHT22;15704;48.834;8.736;2022-11-21T00:22:46;4.60;99.90
28484;DHT22;15704;48.834;8.736;2022-11-21T00:25:12;4.60;99.90
28484;DHT22;15704;48.834;8.736;2022-11-21T00:27:38;4.60;99.90
28484;DHT22;15704;48.834;8.736;2022-11-21T00:30:05;4.60;99.90
28484;DHT22;15704;48.834;8.736;2022-11-21T00:32:31;4.50;99.90
28484;DHT22;15704;48.834;8.736;2022-11-21T00:34:57;4.50;99.90
28484;DHT22;15704;48.834;8.736;2022-11-21T00:37:22;4.50;99.90
28484;DHT22;15704;48.834;8.736;2022-11-21T00:39:48;4.50;99.90
28484;DHT22;15704;48.834;8.736;2022-11-21T00:42:13;4.60;99.90
28484;DHT22;15704;48.834;8.736;2022-11-21T00:44:39;4.70;99.90
28484;DHT22;15704;48.834;8.736;2022-11-21T00:47:05;4.80;99.90
28484;DHT22;15704;48.834;8.736;2022-11-21T00:49:30;4.80;99.90
28484;DHT22;15704;48.834;8.736;2022-11-21T00:51:56;4.90;99.90
28484;DHT22;15704;48.834;8.736;2022-11-21T00:54:21;4.90;99.90
28484;DHT22;15704;48.834;8.736;2022-11-21T00:56:47;4.90;99.90
28484;DHT22;15704;48.834;8.736;2022-11-21T00:59:13;5.00;99.90
28484;DHT22;15704;48.834;8.736;2022-11-21T01:01:38;5.00;99.90
28484;DHT22;15704;48.834;8.736;2022-11-21T01:04:04;5.00;99.90
28484;DHT22;15704;48.834;8.736;2022-11-21T01:06:30;5.00;99.90
28484;DHT22;15704;48.834;8.736;2022-11-21T01:08:55;5.00;99.90
28484;DHT22;15704;48.834;8.736;2022-11-21T01:11:21;5.00;99.90
28484;DHT22;15704;48.834;8.736;2022-11-21T01:13:47;4.90;99.90
28484;DHT22;15704;48.834;8.736;2022-11-21T01:16:18;5.00;99.90
28484;DHT22;15704;48.834;8.736;2022-11-21T01:18:44;4.90;99.90
28484;DHT22;15704;48.834;8.736;2022-11-21T01:21:19;4.80;99.90
28484;DHT22;15704;48.834;8.736;2022-11-21T01:23:46;4.50;99.90
28484;DHT22;15704;48.834;8.736;2022-11-21T01:26:14;4.50;99.90
28484;DHT22;15704;48.834;8.736;2022-11-21T01:28:40;4.30;99.90
28484;DHT22;15704;48.834;8.736;2022-11-21T01:31:11;4.30;99.90
28484;DHT22;15704;48.834;8.736;2022-11-21T01:33:37;4.30;99.90
28484;DHT22;15704;48.834;8.736;2022-11-21T01:36:13;4.10;99.90
28484;DHT22;15704;48.834;8.736;2022-11-21T01:38:40;4.20;99.90
28484;DHT22;15704;48.834;8.736;2022-11-21T01:41:07;4.10;99.90
28484;DHT22;15704;48.834;8.736;2022-11-21T01:43:33;4.10;99.90
28484;DHT22;15704;48.834;8.736;2022-11-21T01:46:00;4.10;99.90
28484;DHT22;15704;48.834;8.736;2022-11-21T01:51:37;4.00;99.90
28484;DHT22;15704;48.834;8.736;2022-11-21T01:56:48;4.10;99.90
28484;DHT22;15704;48.834;8.736;2022-11-21T01:59:29;4.10;99.90
28484;DHT22;15704;48.834;8.736;2022-11-21T02:01:57;4.20;99.90
28484;DHT22;15704;48.834;8.736;2022-11-21T02:04:26;4.20;99.90
28484;DHT22;15704;48.834;8.736;2022-11-21T02:06:52;4.20;99.90
28484;DHT22;15704;48.834;8.736;2022-11-21T02:09:19;4.10;99.90
28484;DHT22;15704;48.834;8.736;2022-11-21T02:11:51;4.10;99.90
28484;DHT22;15704;48.834;8.736;2022-11-21T02:14:18;4.20;99.90
28484;DHT22;15704;48.834;8.736;2022-11-21T02:16:45;4.10;99.90
28484;DHT22;15704;48.834;8.736;2022-11-21T02:19:17;4.20;99.90
28484;DHT22;15704;48.834;8.736;2022-11-21T02:26:48;4.20;99.90
28484;DHT22;15704;48.834;8.736;2022-11-21T02:29:14;4.10;99.90
28484;DHT22;15704;48.834;8.736;2022-11-21T02:31:40;4.10;99.90
28484;DHT22;15704;48.834;8.736;2022-11-21T02:34:05;4.20;99.90
28484;DHT22;15704;48.834;8.736;2022-11-21T02:36:43;4.30;99.90
28484;DHT22;15704;48.834;8.736;2022-11-21T02:39:31;4.20;99.90
28484;DHT22;15704;48.834;8.736;2022-11-21T02:47:30;4.40;99.90
28484;DHT22;15704;48.834;8.736;2022-11-21T02:50:24;4.30;99.90
28484;DHT22;15704;48.834;8.736;2022-11-21T02:52:51;4.20;99.90
28484;DHT22;15704;48.834;8.736;2022-11-21T02:55:16;4.20;99.90
28484;DHT22;15704;48.834;8.736;2022-11-21T02:57:42;4.30;99.90
28484;DHT22;15704;48.834;8.736;2022-11-21T03:00:09;4.20;99.90
28484;DHT22;15704;48.834;8.736;2022-11-21T03:02:35;4.20;99.90
28484;DHT22;15704;48.834;8.736;2022-11-21T03:05:02;4.30;99.90
28484;DHT22;15704;48.834;8.736;2022-11-21T03:07:28;4.30;99.90
28484;DHT22;15704;48.834;8.736;2022-11-21T03:09:54;4.20;99.90
28484;DHT22;15704;48.834;8.736;2022-11-21T03:12:19;4.30;99.90
28484;DHT22;15704;48.834;8.736;2022-11-21T03:14:45;4.20;99.90
28484;DHT22;15704;48.834;8.736;2022-11-21T03:17:10;4.40;99.90
28484;DHT22;15704;48.834;8.736;2022-11-21T03:19:36;4.40;99.90
28484;DHT22;15704;48.834;8.736;2022-11-21T03:22:01;4.40;99.90
28484;DHT22;15704;48.834;8.736;2022-11-21T03:24:27;4.40;99.90
28484;DHT22;15704;48.834;8.736;2022-11-21T03:26:53;4.50;99.90
28484;DHT22;15704;48.834;8.736;2022-11-21T03:29:18;4.60;99.90
28484;DHT22;15704;48.834;8.736;2022-11-21T03:31:44;4.60;99.90
28484;DHT22;15704;48.834;8.736;2022-11-21T03:34:09;4.60;99.90
28484;DHT22;15704;48.834;8.736;2022-11-21T03:36:35;4.60;99.90
28484;DHT22;15704;48.834;8.736;2022-11-21T03:39:00;4.60;99.90
28484;DHT22;15704;48.834;8.736;2022-11-21T03:41:26;4.70;99.90
28484;DHT22;15704;48.834;8.736;2022-11-21T03:44:03;4.60;99.90
28484;DHT22;15704;48.834;8.736;2022-11-21T03:46:31;4.60;99.90
28484;DHT22;15704;48.834;8.736;2022-11-21T03:48:57;4.70;99.90
28484;DHT22;15704;48.834;8.736;2022-11-21T03:51:23;4.60;99.90
28484;DHT22;15704;48.834;8.736;2022-11-21T03:53:49;4.70;99.90
28484;DHT22;15704;48.834;8.736;2022-11-21T03:56:14;4.70;99.90
28484;DHT22;15704;48.834;8.736;2022-11-21T03:58:40;4.80;99.90
28484;DHT22;15704;48.834;8.736;2022-11-21T04:01:06;4.80;99.90
28484;DHT22;15704;48.834;8.736;2022-11-21T04:03:31;4.80;99.90
28484;DHT22;15704;48.834;8.736;2022-11-21T04:05:57;4.80;99.90
28484;DHT22;15704;48.834;8.736;2022-11-21T04:08:23;4.80;99.90
28484;DHT22;15704;48.834;8.736;2022-11-21T04:10:50;4.80;99.90
28484;DHT22;15704;48.834;8.736;2022-11-21T04:13:16;4.70;99.90
28484;DHT22;15704;48.834;8.736;2022-11-21T04:15:42;4.60;99.90
28484;DHT22;15704;48.834;8.736;2022-11-21T04:18:08;4.60;99.90
28484;DHT22;15704;48.834;8.736;2022-11-21T04:20:33;4.60;99.90
28484;DHT22;15704;48.834;8.736;2022-11-21T04:22:59;4.60;99.90
28484;DHT22;15704;48.834;8.736;2022-11-21T04:25:25;4.50;99.90
28484;DHT22;15704;48.834;8.736;2022-11-21T04:27:50;4.50;99.90
28484;DHT22;15704;48.834;8.736;2022-11-21T04:30:16;4.50;99.90
28484;DHT22;15704;48.834;8.736;2022-11-21T04:32:41;4.50;99.90
28484;DHT22;15704;48.834;8.736;2022-11-21T04:35:08;4.50;99.90
28484;DHT22;15704;48.834;8.736;2022-11-21T04:37:34;4.50;99.90
28484;DHT22;15704;48.834;8.736;2022-11-21T04:39:59;4.40;99.90
28484;DHT22;15704;48.834;8.736;2022-11-21T04:42:25;4.40;99.90
28484;DHT22;15704;48.834;8.736;2022-11-21T04:44:50;4.40;99.90
28484;DHT22;15704;48.834;8.736;2022-11-21T04:47:16;4.30;99.90
28484;DHT22;15704;48.834;8.736;2022-11-21T04:49:41;4.30;99.90
28484;DHT22;15704;48.834;8.736;2022-11-21T04:52:07;4.30;99.90
28484;DHT22;15704;48.834;8.736;2022-11-21T04:54:32;4.20;99.90
28484;DHT22;15704;48.834;8.736;2022-11-21T04:56:58;4.20;99.90
28484;DHT22;15704;48.834;8.736;2022-11-21T04:59:24;4.20;99.90
28484;DHT22;15704;48.834;8.736;2022-11-21T05:01:49;4.10;99.90
28484;DHT22;15704;48.834;8.736;2022-11-21T05:04:15;4.10;99.90
28484;DHT22;15704;48.834;8.736;2022-11-21T05:06:40;4.10;99.90
28484;DHT22;15704;48.834;8.736;2022-11-21T05:09:06;4.10;99.90
28484;DHT22;15704;48.834;8.736;2022-11-21T05:11:31;4.10;99.90
28484;DHT22;15704;48.834;8.736;2022-11-21T05:14:16;4.10;99.90
28484;DHT22;15704;48.834;8.736;2022-11-21T05:16:41;4.10;99.90
28484;DHT22;15704;48.834;8.736;2022-11-21T05:19:08;4.20;99.90
28484;DHT22;15704;48.834;8.736;2022-11-21T05:21:33;4.20;99.90
28484;DHT22;15704;48.834;8.736;2022-11-21T05:23:59;4.20;99.90
28484;DHT22;15704;48.834;8.736;2022-11-21T05:26:24;4.20;99.90
28484;DHT22;15704;48.834;8.736;2022-11-21T05:28:50;4.10;99.90
28484;DHT22;15704;48.834;8.736;2022-11-21T05:31:16;4.00;99.90
28484;DHT22;15704;48.834;8.736;2022-11-21T05:33:41;4.00;99.90
28484;DHT22;15704;48.834;8.736;2022-11-21T05:36:07;4.00;99.90
28484;DHT22;15704;48.834;8.736;2022-11-21T05:38:32;4.00;99.90
28484;DHT22;15704;48.834;8.736;2022-11-21T05:40:58;4.00;99.90
28484;DHT22;15704;48.834;8.736;2022-11-21T05:43:23;4.00;99.90
28484;DHT22;15704;48.834;8.736;2022-11-21T05:46:08;4.00;99.90
28484;DHT22;15704;48.834;8.736;2022-11-21T05:48:33;4.00;99.90
28484;DHT22;15704;48.834;8.736;2022-11-21T05:51:01;4.10;99.90
28484;DHT22;15704;48.834;8.736;2022-11-21T05:53:27;4.10;99.90
28484;DHT22;15704;48.834;8.736;2022-11-21T05:55:52;4.20;99.90
28484;DHT22;15704;48.834;8.736;2022-11-21T05:58:18;4.30;99.90
28484;DHT22;15704;48.834;8.736;2022-11-21T06:00:43;4.30;99.90
28484;DHT22;15704;48.834;8.736;2022-11-21T06:03:10;4.20;99.90
28484;DHT22;15704;48.834;8.736;2022-11-21T06:06:06;4.30;99.90
28484;DHT22;15704;48.834;8.736;2022-11-21T06:08:40;4.20;99.90
28484;DHT22;15704;48.834;8.736;2022-11-21T06:11:08;4.20;99.90
28484;DHT22;15704;48.834;8.736;2022-11-21T06:13:34;4.10;99.90
28484;DHT22;15704;48.834;8.736;2022-11-21T06:16:03;4.10;99.90
28484;DHT22;15704;48.834;8.736;2022-11-21T06:18:31;4.20;99.90
28484;DHT22;15704;48.834;8.736;2022-11-21T06:21:08;4.30;99.90
28484;DHT22;15704;48.834;8.736;2022-11-21T06:23:36;4.30;99.90
28484;DHT22;15704;48.834;8.736;2022-11-21T06:26:04;4.30;99.90
28484;DHT22;15704;48.834;8.736;2022-11-21T06:28:34;4.20;99.90
28484;DHT22;15704;48.834;8.736;2022-11-21T06:31:09;4.20;99.90
28484;DHT22;15704;48.834;8.736;2022-11-21T06:33:35;4.10;99.90
28484;DHT22;15704;48.834;8.736;2022-11-21T06:36:06;4.10;99.90
28484;DHT22;15704;48.834;8.736;2022-11-21T06:38:32;4.00;99.90
28484;DHT22;15704;48.834;8.736;2022-11-21T06:41:06;4.00;99.90
28484;DHT22;15704;48.834;8.736;2022-11-21T06:43:32;3.90;99.90
28484;DHT22;15704;48.834;8.736;2022-11-21T06:45:57;3.90;99.90
28484;DHT22;15704;48.834;8.736;2022-11-21T06:48:24;3.90;99.90
28484;DHT22;15704;48.834;8.736;2022-11-21T06:50:50;3.90;99.90
28484;DHT22;15704;48.834;8.736;2022-11-21T06:53:15;3.90;99.90
28484;DHT22;15704;48.834;8.736;2022-11-21T06:55:41;4.00;99.90
28484;DHT22;15704;48.834;8.736;2022-11-21T06:58:07;4.10;99.90
28484;DHT22;15704;48.834;8.736;2022-11-21T07:00:32;4.00;99.90
28484;DHT22;15704;48.834;8.736;2022-11-21T07:03:02;4.00;99.90
28484;DHT22;15704;48.834;8.736;2022-11-21T07:05:28;4.00;99.90
28484;DHT22;15704;48.834;8.736;2022-11-21T07:08:01;4.00;99.90
28484;DHT22;15704;48.834;8.736;2022-11-21T07:10:28;4.00;99.90
28484;DHT22;15704;48.834;8.736;2022-11-21T07:12:57;3.90;99.90
28484;DHT22;15704;48.834;8.736;2022-11-21T07:15:42;3.90;99.90
28484;DHT22;15704;48.834;8.736;2022-11-21T07:18:08;4.00;99.90
28484;DHT22;15704;48.834;8.736;2022-11-21T07:20:34;3.90;99.90
28484;DHT22;15704;48.834;8.736;2022-11-21T07:22:59;3.90;99.90
28484;DHT22;15704;48.834;8.736;2022-11-21T07:25:25;3.90;99.90
28484;DHT22;15704;48.834;8.736;2022-11-21T07:27:51;3.90;99.90
28484;DHT22;15704;48.834;8.736;2022-11-21T07:30:16;4.00;99.90
28484;DHT22;15704;48.834;8.736;2022-11-21T07:32:42;3.90;99.90
28484;DHT22;15704;48.834;8.736;2022-11-21T07:35:08;3.90;99.90
28484;DHT22;15704;48.834;8.736;2022-11-21T07:37:38;4.00;99.90
28484;DHT22;15704;48.834;8.736;2022-11-21T07:40:05;4.00;99.90
28484;DHT22;15704;48.834;8.736;2022-11-21T07:42:34;4.00;99.90
28484;DHT22;15704;48.834;8.736;2022-11-21T07:44:59;4.00;99.90
28484;DHT22;15704;48.834;8.736;2022-11-21T07:47:25;4.10;99.90
28484;DHT22;15704;48.834;8.736;2022-11-21T07:49:50;4.20;99.90
28484;DHT22;15704;48.834;8.736;2022-11-21T07:52:16;4.20;99.90
28484;DHT22;15704;48.834;8.736;2022-11-21T07:54:41;4.30;99.90
28484;DHT22;15704;48.834;8.736;2022-11-21T07:57:07;4.30;99.90
28484;DHT22;15704;48.834;8.736;2022-11-21T07:59:33;4.40;99.90
28484;DHT22;15704;48.834;8.736;2022-11-21T08:01:58;4.40;99.90
28484;DHT22;15704;48.834;8.736;2022-11-21T08:04:24;4.50;99.90
28484;DHT22;15704;48.834;8.736;2022-11-21T08:06:50;4.60;99.90
28484;DHT22;15704;48.834;8.736;2022-11-21T08:09:16;4.70;99.90
28484;DHT22;15704;48.834;8.736;2022-11-21T08:11:41;4.80;99.90
28484;DHT22;15704;48.834;8.736;2022-11-21T08:14:07;4.90;99.90
28484;DHT22;15704;48.834;8.736;2022-11-21T08:16:33;4.90;99.90
28484;DHT22;15704;48.834;8.736;2022-11-21T08:18:59;4.80;99.90
28484;DHT22;15704;48.834;8.736;2022-11-21T08:21:24;4.80;99.90
28484;DHT22;15704;48.834;8.736;2022-11-21T08:23:50;4.80;99.90
28484;DHT22;15704;48.834;8.736;2022-11-21T08:26:16;4.90;99.90
28484;DHT22;15704;48.834;8.736;2022-11-21T08:28:42;4.90;99.90
28484;DHT22;15704;48.834;8.736;2022-11-21T08:31:08;4.90;99.90
28484;DHT22;15704;48.834;8.736;2022-11-21T08:33:34;4.90;99.90
28484;DHT22;15704;48.834;8.736;2022-11-21T08:36:03;5.00;99.90
28484;DHT22;15704;48.834;8.736;2022-11-21T08:38:29;5.00;99.90
28484;DHT22;15704;48.834;8.736;2022-11-21T08:40:55;5.10;99.90
28484;DHT22;15704;48.834;8.736;2022-11-21T08:43:39;5.30;99.90
28484;DHT22;15704;48.834;8.736;2022-11-21T08:46:05;5.40;99.90
28484;DHT22;15704;48.834;8.736;2022-11-21T08:48:30;5.60;99.90
28484;DHT22;15704;48.834;8.736;2022-11-21T08:50:56;5.70;99.90
28484;DHT22;15704;48.834;8.736;2022-11-21T08:53:22;6.00;99.90
28484;DHT22;15704;48.834;8.736;2022-11-21T08:55:48;6.00;99.90
28484;DHT22;15704;48.834;8.736;2022-11-21T08:58:13;6.10;99.90
28484;DHT22;15704;48.834;8.736;2022-11-21T09:00:39;6.10;99.90
28484;DHT22;15704;48.834;8.736;2022-11-21T09:03:05;6.10;99.90
28484;DHT22;15704;48.834;8.736;2022-11-21T09:05:31;6.20;99.90
28484;DHT22;15704;48.834;8.736;2022-11-21T09:07:57;6.30;99.90
28484;DHT22;15704;48.834;8.736;2022-11-21T09:10:24;6.30;99.90
28484;DHT22;15704;48.834;8.736;2022-11-21T09:12:50;6.30;99.90
28484;DHT22;15704;48.834;8.736;2022-11-21T09:15:16;6.20;99.90
28484;DHT22;15704;48.834;8.736;2022-11-21T09:18:01;6.00;99.90
28484;DHT22;15704;48.834;8.736;2022-11-21T09:20:31;6.20;99.90
28484;DHT22;15704;48.834;8.736;2022-11-21T09:23:09;6.40;99.90
28484;DHT22;15704;48.834;8.736;2022-11-21T09:25:35;6.50;99.90
28484;DHT22;15704;48.834;8.736;2022-11-21T09:28:02;6.50;99.90
28484;DHT22;15704;48.834;8.736;2022-11-21T09:30:28;6.50;99.90
28484;DHT22;15704;48.834;8.736;2022-11-21T09:32:59;6.60;99.90
28484;DHT22;15704;48.834;8.736;2022-11-21T09:35:25;6.80;99.90
28484;DHT22;15704;48.834;8.736;2022-11-21T09:37:51;7.10;99.90
28484;DHT22;15704;48.834;8.736;2022-11-21T09:40:16;7.20;99.90
28484;DHT22;15704;48.834;8.736;2022-11-21T09:42:55;7.30;99.90
28484;DHT22;15704;48.834;8.736;2022-11-21T09:45:29;7.30;99.90
28484;DHT22;15704;48.834;8.736;2022-11-21T09:47:55;7.30;99.90
28484;DHT22;15704;48.834;8.736;2022-11-21T09:53:08;7.30;99.90
28484;DHT22;15704;48.834;8.736;2022-11-21T09:55:45;7.10;99.90
28484;DHT22;15704;48.834;8.736;2022-11-21T10:00:45;7.50;99.90
28484;DHT22;15704;48.834;8.736;2022-11-21T10:03:11;7.70;99.90
28484;DHT22;15704;48.834;8.736;2022-11-21T10:22:12;7.70;99.90
28484;DHT22;15704;48.834;8.736;2022-11-21T10:24:53;7.70;99.90
28484;DHT22;15704;48.834;8.736;2022-11-21T10:27:34;7.50;99.90
28484;DHT22;15704;48.834;8.736;2022-11-21T10:30:04;7.50;99.90
28484;DHT22;15704;48.834;8.736;2022-11-21T10:32:39;7.30;99.90
28484;DHT22;15704;48.834;8.736;2022-11-21T10:35:36;7.30;99.90
28484;DHT22;15704;48.834;8.736;2022-11-21T10:38:21;7.30;99.90
28484;DHT22;15704;48.834;8.736;2022-11-21T10:41:04;7.40;99.90
28484;DHT22;15704;48.834;8.736;2022-11-21T10:43:48;7.60;99.90
28484;DHT22;15704;48.834;8.736;2022-11-21T10:46:32;7.70;99.90
28484;DHT22;15704;48.834;8.736;2022-11-21T10:49:00;8.00;99.90
28484;DHT22;15704;48.834;8.736;2022-11-21T10:51:49;8.20;99.90
28484;DHT22;15704;48.834;8.736;2022-11-21T10:54:17;8.10;99.90
28484;DHT22;15704;48.834;8.736;2022-11-21T10:57:15;8.10;99.90
28484;DHT22;15704;48.834;8.736;2022-11-21T11:00:28;8.10;99.90
28484;DHT22;15704;48.834;8.736;2022-11-21T11:03:14;8.10;99.90
28484;DHT22;15704;48.834;8.736;2022-11-21T11:05:41;8.10;99.90
28484;DHT22;15704;48.834;8.736;2022-11-21T11:08:17;8.30;99.90
28484;DHT22;15704;48.834;8.736;2022-11-21T11:10:45;8.30;99.90
28484;DHT22;15704;48.834;8.736;2022-11-21T11:13:24;8.30;99.90
28484;DHT22;15704;48.834;8.736;2022-11-21T11:18:56;8.00;99.90
28484;DHT22;15704;48.834;8.736;2022-11-21T11:21:43;7.80;99.90
28484;DHT22;15704;48.834;8.736;2022-11-21T11:26:51;7.60;99.90
28484;DHT22;15704;48.834;8.736;2022-11-21T11:48:36;8.30;99.90
28484;DHT22;15704;48.834;8.736;2022-11-21T11:51:24;8.40;99.90
28484;DHT22;15704;48.834;8.736;2022-11-21T11:53:56;8.40;99.90
28484;DHT22;15704;48.834;8.736;2022-11-21T11:56:32;8.60;99.90
28484;DHT22;15704;48.834;8.736;2022-11-21T12:01:49;8.60;99.90
28484;DHT22;15704;48.834;8.736;2022-11-21T12:04:19;8.60;99.90
28484;DHT22;15704;48.834;8.736;2022-11-21T12:09:35;8.80;99.90
28484;DHT22;15704;48.834;8.736;2022-11-21T12:15:29;8.70;99.90
28484;DHT22;15704;48.834;8.736;2022-11-21T12:23:54;8.60;99.90
28484;DHT22;15704;48.834;8.736;2022-11-21T12:27:02;8.50;99.90
28484;DHT22;15704;48.834;8.736;2022-11-21T12:43:26;8.80;99.90
28484;DHT22;15704;48.834;8.736;2022-11-21T12:46:19;8.60;99.90
28484;DHT22;15704;48.834;8.736;2022-11-21T12:49:07;8.30;99.90
28484;DHT22;15704;48.834;8.736;2022-11-21T12:52:11;8.30;99.90
28484;DHT22;15704;48.834;8.736;2022-11-21T12:55:34;8.20;99.90
28484;DHT22;15704;48.834;8.736;2022-11-21T12:58:35;8.30;99.90
28484;DHT22;15704;48.834;8.736;2022-11-21T13:05:59;8.40;99.90
28484;DHT22;15704;48.834;8.736;2022-11-21T13:08:28;8.30;99.90
28484;DHT22;15704;48.834;8.736;2022-11-21T13:11:07;8.50;99.90
28484;DHT22;15704;48.834;8.736;2022-11-21T13:14:14;8.50;99.90
28484;DHT22;15704;48.834;8.736;2022-11-21T13:16:46;8.60;99.90
28484;DHT22;15704;48.834;8.736;2022-11-21T13:19:24;8.80;99.90
28484;DHT22;15704;48.834;8.736;2022-11-21T13:21:54;8.70;99.90
28484;DHT22;15704;48.834;8.736;2022-11-21T13:27:40;9.10;99.90
28484;DHT22;15704;48.834;8.736;2022-11-21T13:32:38;8.90;99.90
28484;DHT22;15704;48.834;8.736;2022-11-21T13:43:12;8.40;99.90
28484;DHT22;15704;48.834;8.736;2022-11-21T13:45:45;8.20;99.90
28484;DHT22;15704;48.834;8.736;2022-11-21T13:59:19;7.90;99.90
28484;DHT22;15704;48.834;8.736;2022-11-21T14:09:50;7.70;99.90
28484;DHT22;15704;48.834;8.736;2022-11-21T14:12:34;7.70;99.90
28484;DHT22;15704;48.834;8.736;2022-11-21T14:17:43;7.70;99.90
28484;DHT22;15704;48.834;8.736;2022-11-21T14:22:53;7.80;99.90
28484;DHT22;15704;48.834;8.736;2022-11-21T14:25:31;7.80;99.90
28484;DHT22;15704;48.834;8.736;2022-11-21T14:27:58;7.80;99.90
28484;DHT22;15704;48.834;8.736;2022-11-21T14:30:31;7.80;99.90
28484;DHT22;15704;48.834;8.736;2022-11-21T14:33:21;7.80;99.90
28484;DHT22;15704;48.834;8.736;2022-11-21T14:35:53;7.70;99.90
28484;DHT22;15704;48.834;8.736;2022-11-21T14:38:20;7.60;99.90
28484;DHT22;15704;48.834;8.736;2022-11-21T14:40:46;7.50;99.90
28484;DHT22;15704;48.834;8.736;2022-11-21T14:43:32;7.40;99.90
28484;DHT22;15704;48.834;8.736;2022-11-21T14:45:58;7.40;99.90
28484;DHT22;15704;48.834;8.736;2022-11-21T14:48:26;7.40;99.90
28484;DHT22;15704;48.834;8.736;2022-11-21T14:50:52;7.30;99.90
28484;DHT22;15704;48.834;8.736;2022-11-21T14:53:18;7.20;99.90
28484;DHT22;15704;48.834;8.736;2022-11-21T14:55:48;7.20;99.90
28484;DHT22;15704;48.834;8.736;2022-11-21T14:58:15;7.10;99.90
28484;DHT22;15704;48.834;8.736;2022-11-21T15:00:41;7.10;99.90
28484;DHT22;15704;48.834;8.736;2022-11-21T15:03:25;7.00;99.90
28484;DHT22;15704;48.834;8.736;2022-11-21T15:06:01;7.00;99.90
28484;DHT22;15704;48.834;8.736;2022-11-21T15:08:27;6.90;99.90
28484;DHT22;15704;48.834;8.736;2022-11-21T15:10:54;6.90;99.90
28484;DHT22;15704;48.834;8.736;2022-11-21T15:13:23;6.80;99.90
28484;DHT22;15704;48.834;8.736;2022-11-21T15:15:52;6.70;99.90
28484;DHT22;15704;48.834;8.736;2022-11-21T15:18:27;6.60;99.90
28484;DHT22;15704;48.834;8.736;2022-11-21T15:20:57;6.50;99.90
28484;DHT22;15704;48.834;8.736;2022-11-21T15:23:37;6.50;99.90
28484;DHT22;15704;48.834;8.736;2022-11-21T15:26:05;6.40;99.90
28484;DHT22;15704;48.834;8.736;2022-11-21T15:28:30;6.20;99.90
28484;DHT22;15704;48.834;8.736;2022-11-21T15:31:16;6.20;99.90
28484;DHT22;15704;48.834;8.736;2022-11-21T15:33:59;6.10;99.90
28484;DHT22;15704;48.834;8.736;2022-11-21T15:36:26;5.90;99.90
28484;DHT22;15704;48.834;8.736;2022-11-21T15:38:55;5.80;99.90
28484;DHT22;15704;48.834;8.736;2022-11-21T15:41:31;5.80;99.90
28484;DHT22;15704;48.834;8.736;2022-11-21T15:46:33;5.60;99.90
28484;DHT22;15704;48.834;8.736;2022-11-21T15:49:01;5.50;99.90
28484;DHT22;15704;48.834;8.736;2022-11-21T15:51:54;5.40;99.90
28484;DHT22;15704;48.834;8.736;2022-11-21T15:54:20;5.30;99.90
28484;DHT22;15704;48.834;8.736;2022-11-21T15:56:46;5.20;99.90
28484;DHT22;15704;48.834;8.736;2022-11-21T15:59:13;5.10;99.90
28484;DHT22;15704;48.834;8.736;2022-11-21T16:01:39;5.00;99.90
28484;DHT22;15704;48.834;8.736;2022-11-21T16:04:09;4.90;99.90
28484;DHT22;15704;48.834;8.736;2022-11-21T16:06:35;4.80;99.90
28484;DHT22;15704;48.834;8.736;2022-11-21T16:09:01;4.70;99.90
28484;DHT22;15704;48.834;8.736;2022-11-21T16:11:35;4.70;99.90
28484;DHT22;15704;48.834;8.736;2022-11-21T16:14:14;4.60;99.90
28484;DHT22;15704;48.834;8.736;2022-11-21T16:16:42;4.50;99.90
28484;DHT22;15704;48.834;8.736;2022-11-21T16:19:10;4.40;99.90
28484;DHT22;15704;48.834;8.736;2022-11-21T16:21:35;4.40;99.90
28484;DHT22;15704;48.834;8.736;2022-11-21T16:24:01;4.30;99.90
28484;DHT22;15704;48.834;8.736;2022-11-21T16:26:27;4.30;99.90
28484;DHT22;15704;48.834;8.736;2022-11-21T16:28:57;4.30;99.90
28484;DHT22;15704;48.834;8.736;2022-11-21T16:31:25;4.30;99.90
28484;DHT22;15704;48.834;8.736;2022-11-21T16:33:51;4.30;99.90
28484;DHT22;15704;48.834;8.736;2022-11-21T16:36:25;4.20;99.90
28484;DHT22;15704;48.834;8.736;2022-11-21T16:38:52;4.30;99.90
28484;DHT22;15704;48.834;8.736;2022-11-21T16:41:19;4.30;99.90
28484;DHT22;15704;48.834;8.736;2022-11-21T16:43:47;4.30;99.90
28484;DHT22;15704;48.834;8.736;2022-11-21T16:46:13;4.30;99.90
28484;DHT22;15704;48.834;8.736;2022-11-21T16:48:39;4.20;99.90
28484;DHT22;15704;48.834;8.736;2022-11-21T16:51:16;4.20;99.90
28484;DHT22;15704;48.834;8.736;2022-11-21T16:53:43;4.20;99.90
28484;DHT22;15704;48.834;8.736;2022-11-21T16:56:09;4.20;99.90
28484;DHT22;15704;48.834;8.736;2022-11-21T16:58:36;4.20;99.90
28484;DHT22;15704;48.834;8.736;2022-11-21T17:01:23;4.10;99.90
28484;DHT22;15704;48.834;8.736;2022-11-21T17:03:49;4.20;99.90
28484;DHT22;15704;48.834;8.736;2022-11-21T17:06:26;4.20;99.90
28484;DHT22;15704;48.834;8.736;2022-11-21T17:08:53;4.20;99.90
28484;DHT22;15704;48.834;8.736;2022-11-21T17:11:23;4.20;99.90
28484;DHT22;15704;48.834;8.736;2022-11-21T17:13:52;4.20;99.90
28484;DHT22;15704;48.834;8.736;2022-11-21T17:16:19;4.20;99.90
28484;DHT22;15704;48.834;8.736;2022-11-21T17:18:44;4.20;99.90
28484;DHT22;15704;48.834;8.736;2022-11-21T17:21:13;4.20;99.90
28484;DHT22;15704;48.834;8.736;2022-11-21T17:23:40;4.20;99.90
28484;DHT22;15704;48.834;8.736;2022-11-21T17:26:11;4.20;99.90
28484;DHT22;15704;48.834;8.736;2022-11-21T17:28:38;4.20;99.90
28484;DHT22;15704;48.834;8.736;2022-11-21T17:31:09;4.20;99.90
28484;DHT22;15704;48.834;8.736;2022-11-21T17:33:35;4.30;99.90
28484;DHT22;15704;48.834;8.736;2022-11-21T17:36:11;4.30;99.90
28484;DHT22;15704;48.834;8.736;2022-11-21T17:38:37;4.30;99.90
28484;DHT22;15704;48.834;8.736;2022-11-21T17:41:06;4.30;99.90
28484;DHT22;15704;48.834;8.736;2022-11-21T17:43:33;4.30;99.90
28484;DHT22;15704;48.834;8.736;2022-11-21T17:46:00;4.30;99.90
28484;DHT22;15704;48.834;8.736;2022-11-21T17:48:26;4.40;99.90
28484;DHT22;15704;48.834;8.736;2022-11-21T17:53:31;4.50;99.90
28484;DHT22;15704;48.834;8.736;2022-11-21T17:55:58;4.60;99.90
28484;DHT22;15704;48.834;8.736;2022-11-21T17:58:25;4.70;99.90
28484;DHT22;15704;48.834;8.736;2022-11-21T18:01:00;4.70;99.90
28484;DHT22;15704;48.834;8.736;2022-11-21T18:03:27;4.80;99.90
28484;DHT22;15704;48.834;8.736;2022-11-21T18:06:03;4.80;99.90
28484;DHT22;15704;48.834;8.736;2022-11-21T18:08:34;4.80;99.90
28484;DHT22;15704;48.834;8.736;2022-11-21T18:11:00;4.80;99.90
28484;DHT22;15704;48.834;8.736;2022-11-21T18:13:27;4.90;99.90
28484;DHT22;15704;48.834;8.736;2022-11-21T18:15:53;4.90;99.90
28484;DHT22;15704;48.834;8.736;2022-11-21T18:18:19;4.90;99.90
28484;DHT22;15704;48.834;8.736;2022-11-21T18:20:44;4.90;99.90